Clifford Maersk — OYRO2 — position and weather

sailwx.info

Track history (hours):
 
Tides and Currents Weather Stations Pressure Air Temp Water Temp Dewpoint Dewpoint Depression Visibility Wind Speed Wind Dir Waves Ship Positions

Clifford Maersk

Last reported at 2016-May-25 17:30 UTC. Time now 2016-May-26 18:27 UTC.
Position N 29°47' E 122°45'.

Type: Cargo ship. MMSI: 219840000.

Date/timePositionNaut miles runAvg speedWind from/ knotsBaromVisibWave heightAir tempDewpointWater temp
2016-May-25 17:30N 29°47' E 122°45'1313.8
2016-May-25 16:33N 29°40' E 122°32'1212.6
2016-May-25 15:34N 29°45' E 122°19'9 9.0
2016-May-25 14:33N 29°51' E 122°12'1010.2
2016-May-25 13:33N 29°46' E 122°02'1 0.1
2016-May-24 22:23N 29°46' E 122°01'0 0.0
2016-May-24 18:15N 29°46' E 122°01'2 3.3
2016-May-24 17:33N 29°47' E 122°03'10 9.6
2016-May-24 16:33N 29°49' E 122°14'9 9.0
2016-May-24 15:33N 29°44' E 122°23'8 7.7
2016-May-24 14:33N 29°42' E 122°31'9 9.1
2016-May-24 13:33N 29°44' E 122°41'15 4.8
2016-May-24 10:26N 29°52' E 122°55'31 5.2
2016-May-24 04:33N 30°23' E 122°52'3014.1
2016-May-24 02:25N 30°32' E 122°19'7 7.8
2016-May-24 01:32N 30°34' E 122°12'8 1.8
2016-May-23 21:17N 30°37' E 122°04'0 0.0
2016-May-23 20:29N 30°37' E 122°04'0 0.0
2016-May-23 19:26N 30°37' E 122°04'0 0.0
2016-May-23 09:29N 30°37' E 122°04'0 0.0
2016-May-23 00:22N 30°37' E 122°04'6 7.2
2016-May-22 23:32N 30°34' E 122°10'1211.3
2016-May-22 22:31N 30°33' E 122°23'2116.6
2016-May-22 21:17N 30°33' E 122°47'  
2016-May-20 12:10N 34°56' E 122°31'912.5
2016-May-20 11:26N 34°51' E 122°40'1011.5
2016-May-20 10:32N 34°44' E 122°49'2711.6
2016-May-20 08:14N 34°27' E 123°14'  
2016-May-16 05:15N 34°46' E 139°36'1217.6
2016-May-16 04:33N 34°58' E 139°40'1515.3
2016-May-16 03:33N 35°13' E 139°46'1211.8
2016-May-16 02:33N 35°23' E 139°41'1 0.7
2016-May-16 01:33N 35°24' E 139°41'0 0.0
2016-May-16 00:33N 35°24' E 139°41'0 0.0
2016-May-15 23:33N 35°24' E 139°41'2 2.5
2016-May-15 22:33N 35°22' E 139°42'1110.7
2016-May-15 21:33N 35°12' E 139°47'1212.3
2016-May-15 20:33N 35°00' E 139°41'1715.3
2016-May-15 19:28N 34°49' E 139°56'1516.7
2016-May-15 18:33N 34°47' E 140°14'  
Track history (hours):
 
Tides and Currents Weather Stations Pressure Air Temp Water Temp Dewpoint Dewpoint Depression Visibility Wind Speed Wind Dir Waves Ship Positions

Clifford Maersk

Last reported at 2016-May-25 17:30 UTC. Time now 2016-May-26 18:27 UTC.
Position N 29°47' E 122°45'.

Type: Cargo ship. MMSI: 219840000.

Date/timePositionNaut miles runAvg speedWind from/ knotsBaromVisibWave heightAir tempDewpointWater temp
2016-May-25 17:30N 29°47' E 122°45'1313.8
2016-May-25 16:33N 29°40' E 122°32'1212.6
2016-May-25 15:34N 29°45' E 122°19'9 9.0
2016-May-25 14:33N 29°51' E 122°12'1010.2
2016-May-25 13:33N 29°46' E 122°02'1 0.1
2016-May-24 22:23N 29°46' E 122°01'0 0.0
2016-May-24 18:15N 29°46' E 122°01'2 3.3
2016-May-24 17:33N 29°47' E 122°03'10 9.6
2016-May-24 16:33N 29°49' E 122°14'9 9.0
2016-May-24 15:33N 29°44' E 122°23'8 7.7
2016-May-24 14:33N 29°42' E 122°31'9 9.1
2016-May-24 13:33N 29°44' E 122°41'15 4.8
2016-May-24 10:26N 29°52' E 122°55'31 5.2
2016-May-24 04:33N 30°23' E 122°52'3014.1
2016-May-24 02:25N 30°32' E 122°19'7 7.8
2016-May-24 01:32N 30°34' E 122°12'8 1.8
2016-May-23 21:17N 30°37' E 122°04'0 0.0
2016-May-23 20:29N 30°37' E 122°04'0 0.0
2016-May-23 19:26N 30°37' E 122°04'0 0.0
2016-May-23 09:29N 30°37' E 122°04'0 0.0
2016-May-23 00:22N 30°37' E 122°04'6 7.2
2016-May-22 23:32N 30°34' E 122°10'1211.3
2016-May-22 22:31N 30°33' E 122°23'2116.6
2016-May-22 21:17N 30°33' E 122°47'  
2016-May-20 12:10N 34°56' E 122°31'912.5
2016-May-20 11:26N 34°51' E 122°40'1011.5
2016-May-20 10:32N 34°44' E 122°49'2711.6
2016-May-20 08:14N 34°27' E 123°14'  
2016-May-16 05:15N 34°46' E 139°36'1217.6
2016-May-16 04:33N 34°58' E 139°40'1515.3
2016-May-16 03:33N 35°13' E 139°46'1211.8
2016-May-16 02:33N 35°23' E 139°41'1 0.7
2016-May-16 01:33N 35°24' E 139°41'0 0.0
2016-May-16 00:33N 35°24' E 139°41'0 0.0
2016-May-15 23:33N 35°24' E 139°41'2 2.5
2016-May-15 22:33N 35°22' E 139°42'1110.7
2016-May-15 21:33N 35°12' E 139°47'1212.3
2016-May-15 20:33N 35°00' E 139°41'1715.3
2016-May-15 19:28N 34°49' E 139°56'1516.7
2016-May-15 18:33N 34°47' E 140°14'  

Dump ship's entire track history